Nashville, Tennessee
Traffic Map
Current Weather Conditions
Nashville, Tennessee
Clear
Clear
54°
Feels Like: 54°
Wind Chill: 54° Ceiling: Unl
Heat Index: 54° Visibility: 10mi
Dew Point: 14° Wind: 15mph
Humidity: 21% Direction: 170° (S)
Pressure: 30.28in Gusts: 23mph
Raw Report DataKBNA 291653Z 17013G20KT 10SM CLR 12/M10 A3028 RMK AO2 SLP254 T01221100
Traffic Incident Summary
Active as of:
Severity:
Category:
InformationThere was an issue retrieving the traffic information for this location. Please try a different location or try again shortly.
Advertisements
Track Severe Weather on mobile